createdAt,value
2018-04-16T00:00:51.429Z,65.41
2018-04-16T00:02:01.178Z,64.84
2018-04-16T00:03:11.184Z,65.41
2018-04-16T00:04:20.914Z,65.69
2018-04-16T00:05:30.835Z,65.03
2018-04-16T00:06:40.836Z,65.12
2018-04-16T00:07:50.569Z,65.12
2018-04-16T00:09:00.310Z,65.22
2018-04-16T00:10:10.328Z,65.12
2018-04-16T00:11:20.064Z,64.94
2018-04-16T00:12:29.800Z,65.22
2018-04-16T00:13:39.266Z,64.94
2018-04-16T00:14:49.007Z,65.79
2018-04-16T00:15:59.017Z,66.64
2018-04-16T00:17:09.079Z,65.88
2018-04-16T00:18:18.824Z,66.27
2018-04-16T00:19:28.565Z,66.14
2018-04-16T00:20:38.570Z,65.85
2018-04-16T00:21:48.309Z,65.75
2018-04-16T00:22:57.783Z,66.23
2018-04-16T00:24:07.533Z,66.52
2018-04-16T00:25:17.532Z,66.23
2018-04-16T00:26:27.537Z,67.08
2018-04-16T00:27:37.279Z,66.89
2018-04-16T00:28:47.289Z,67.75
2018-04-16T00:29:56.773Z,67.27
2018-04-16T00:31:06.240Z,67.08
2018-04-16T00:32:15.446Z,67.08
2018-04-16T00:33:25.462Z,67.08
2018-04-16T00:34:35.471Z,66.89
2018-04-16T00:35:44.945Z,67.56
2018-04-16T00:36:54.680Z,67.85
2018-04-16T00:38:04.153Z,67.65
2018-04-16T00:39:13.886Z,67.46
2018-04-16T00:40:23.884Z,67.75
2018-04-16T00:41:33.619Z,67.75
2018-04-16T00:42:42.823Z,67.75
2018-04-16T00:43:52.574Z,66.99
2018-04-16T00:45:02.313Z,67.08
2018-04-16T00:46:12.056Z,67.08
2018-04-16T00:47:21.790Z,66.89
2018-04-16T00:48:31.526Z,66.99
2018-04-16T00:49:41.277Z,67.08
2018-04-16T00:50:51.286Z,66.99
2018-04-16T00:52:01.287Z,66.52
2018-04-16T00:53:10.870Z,65.95
2018-04-16T00:54:20.911Z,66.61
2018-04-16T00:55:30.384Z,66.99
2018-04-16T00:56:40.385Z,67.08
2018-04-16T00:57:50.389Z,67.18
2018-04-16T00:59:00.127Z,67.08
2018-04-16T01:00:09.597Z,67.18
2018-04-16T01:01:19.604Z,66.99
2018-04-16T01:02:29.341Z,66.89
2018-04-16T01:03:39.078Z,67.65
2018-04-16T01:04:49.078Z,67.85
2018-04-16T01:05:58.561Z,68.23
2018-04-16T01:07:08.300Z,68.41
2018-04-16T01:08:18.307Z,68.98
2018-04-16T01:09:28.045Z,69.65
2018-04-16T01:10:37.781Z,69.8
2018-04-16T01:11:47.515Z,70.18
2018-04-16T01:12:57.524Z,70.75
2018-04-16T01:14:06.993Z,70.37
2018-04-16T01:15:17.354Z,70.37
2018-04-16T01:16:27.096Z,70.75
2018-04-16T01:17:37.107Z,69.8
2018-04-16T01:18:47.109Z,70.09
2018-04-16T01:19:57.122Z,70.56
2018-04-16T01:21:06.329Z,70.56
2018-04-16T01:22:15.538Z,70.37
2018-04-16T01:23:25.541Z,70.56
2018-04-16T01:24:35.279Z,69.99
2018-04-16T01:25:45.293Z,70.37
2018-04-16T01:26:55.314Z,70.47
2018-04-16T01:28:04.787Z,70.94
2018-04-16T01:29:14.528Z,71.89
2018-04-16T01:30:24.527Z,72.08
2018-04-16T01:31:34.526Z,71.98
2018-04-16T01:32:44.527Z,71.7
2018-04-16T01:33:54.576Z,71.7
2018-04-16T01:35:04.585Z,71.32
2018-04-16T01:36:14.318Z,71.41
2018-04-16T01:37:24.320Z,71.13
2018-04-16T01:38:34.332Z,71.7
2018-04-16T01:39:44.344Z,71.89
2018-04-16T01:40:54.083Z,71.89
2018-04-16T01:42:04.091Z,71.47
2018-04-16T01:43:13.565Z,71.41
2018-04-16T01:44:23.579Z,71.32
2018-04-16T01:45:33.584Z,70.81
2018-04-16T01:46:43.608Z,71.22
2018-04-16T01:47:53.615Z,72.04
2018-04-16T01:49:03.352Z,73.5
2018-04-16T01:50:12.556Z,73.69
2018-04-16T01:51:22.552Z,73.12
2018-04-16T01:52:32.560Z,72.45
2018-04-16T01:53:42.557Z,72.08
2018-04-16T01:54:52.572Z,71.28
2018-04-16T01:56:02.569Z,71.98
2018-04-16T01:57:12.043Z,71.51
2018-04-16T01:58:21.784Z,71.41
2018-04-16T01:59:31.792Z,72.08
2018-04-16T02:00:41.530Z,72.08
2018-04-16T02:01:51.278Z,71.03
2018-04-16T02:03:00.748Z,71.13
2018-04-16T02:04:10.483Z,71.13
2018-04-16T02:05:20.218Z,71.89
2018-04-16T02:06:29.959Z,71.51
2018-04-16T02:07:39.480Z,71.7
2018-04-16T02:08:49.214Z,71.09
2018-04-16T02:09:59.215Z,70.94
2018-04-16T02:11:08.716Z,71.8
2018-04-16T02:12:18.744Z,72.45
2018-04-16T02:13:28.488Z,73.03
2018-04-16T02:14:38.507Z,72.93
2018-04-16T02:15:48.238Z,72.93
2018-04-16T02:16:58.243Z,72.42
2018-04-16T02:18:08.263Z,72.04
2018-04-16T02:19:18.000Z,72.36
2018-04-16T02:20:27.739Z,72.61
2018-04-16T02:21:37.740Z,72.8
2018-04-16T02:22:47.802Z,72.8
2018-04-16T02:23:57.541Z,71.85
2018-04-16T02:25:07.378Z,71.95
2018-04-16T02:26:17.111Z,71.66
2018-04-16T02:27:26.584Z,71.28
2018-04-16T02:28:36.318Z,71.19
2018-04-16T02:29:46.051Z,70.53
2018-04-16T02:30:55.787Z,70.81
2018-04-16T02:32:05.535Z,70.53
2018-04-16T02:33:15.538Z,70.43
2018-04-16T02:34:25.288Z,69.96
2018-04-16T02:35:34.493Z,70.15
2018-04-16T02:36:44.284Z,69.96
2018-04-16T02:37:54.339Z,69.57
2018-04-16T02:39:03.813Z,70.72
2018-04-16T02:40:13.818Z,70.53
2018-04-16T02:41:23.822Z,70.24
2018-04-16T02:42:33.573Z,70.53
2018-04-16T02:43:43.589Z,70.72
2018-04-16T02:44:53.333Z,70.53
2018-04-16T02:46:03.073Z,70.24
2018-04-16T02:47:12.006Z,71.09
2018-04-16T02:48:22.015Z,71.28
2018-04-16T02:49:31.760Z,72.14
2018-04-16T02:50:41.766Z,71.85
2018-04-16T02:51:51.788Z,71.85
2018-04-16T02:53:01.535Z,72.23
2018-04-16T02:54:11.006Z,72.42
2018-04-16T02:55:21.009Z,71.76
2018-04-16T02:56:30.745Z,72.71
2018-04-16T02:57:40.251Z,73.08
2018-04-16T02:58:50.031Z,73.75
2018-04-16T03:00:00.058Z,74.79
2018-04-16T03:03:41.593Z,75.74
2018-04-16T03:04:51.340Z,75.45
2018-04-16T03:06:00.541Z,75.74
2018-04-16T03:07:10.011Z,75.51
2018-04-16T03:08:19.753Z,75.45
2018-04-16T03:09:29.491Z,76.4
2018-04-16T03:10:38.972Z,77.4
2018-04-16T03:11:48.720Z,77.88
2018-04-16T03:12:58.765Z,76.93
2018-04-16T03:14:08.768Z,78.07
2018-04-16T03:15:17.706Z,78.92
2018-04-16T03:16:27.704Z,79.39
2018-04-16T03:17:37.704Z,79.87
2018-04-16T03:18:47.174Z,79.58
2018-04-16T03:19:56.917Z,79.96
2018-04-16T03:21:06.120Z,80.15
2018-04-16T03:22:16.121Z,80.34
2018-04-16T03:23:25.857Z,80.06
2018-04-16T03:24:35.866Z,79.96
2018-04-16T03:25:45.341Z,79.49
2018-04-16T03:26:55.090Z,79.49
2018-04-16T03:28:04.837Z,79.77
2018-04-16T03:29:14.040Z,79.11
2018-04-16T03:30:24.054Z,78.83
2018-04-16T03:31:33.816Z,78.83
2018-04-16T03:32:43.556Z,78.92
2018-04-16T03:33:53.676Z,78.59
2018-04-16T03:35:03.413Z,78.59
2018-04-16T03:36:13.416Z,78.26
2018-04-16T03:37:23.155Z,78.88
2018-04-16T03:38:32.894Z,78.54
2018-04-16T03:39:42.634Z,78.92
2018-04-16T03:40:52.642Z,79.58
2018-04-16T03:42:02.644Z,79.87
2018-04-16T03:43:11.844Z,80.25
2018-04-16T03:44:21.855Z,79.93
2018-04-16T03:45:31.589Z,79.17
2018-04-16T03:46:41.329Z,78.59
2018-04-16T03:47:51.334Z,78.5
2018-04-16T03:49:00.803Z,78.13
2018-04-16T03:50:10.537Z,78.16
2018-04-16T03:51:20.550Z,77.4
2018-04-16T03:52:30.334Z,77.75
2018-04-16T03:53:40.340Z,77.59
2018-04-16T03:54:49.825Z,77.59
2018-04-16T03:55:59.291Z,78.16
2018-04-16T03:57:08.766Z,78.88
2018-04-16T03:58:18.775Z,79.36
2018-04-16T03:59:28.503Z,79.93
2018-04-16T04:00:38.497Z,79.93
2018-04-16T04:01:48.244Z,80.4
2018-04-16T04:02:57.442Z,80.77
2018-04-16T04:04:07.444Z,80.63
2018-04-16T04:05:17.463Z,79.96
2018-04-16T04:06:26.935Z,79.77
2018-04-16T04:07:36.934Z,79.96
2018-04-16T04:08:46.939Z,79.58
2018-04-16T04:09:56.680Z,79.96
2018-04-16T04:11:05.877Z,79.55
2018-04-16T04:12:15.664Z,79.3
2018-04-16T04:13:25.391Z,79.64
2018-04-16T04:14:35.399Z,79.21
2018-04-16T04:15:44.863Z,79.39
2018-04-16T04:16:54.860Z,79.02
2018-04-16T04:18:04.595Z,78.54
2018-04-16T04:19:14.593Z,78.35
2018-04-16T04:20:24.326Z,78.64
2018-04-16T04:21:34.338Z,78.83
2018-04-16T04:22:44.335Z,77.78
2018-04-16T04:23:54.352Z,78.16
2018-04-16T04:25:04.420Z,78.16
2018-04-16T04:26:14.157Z,78.26
2018-04-16T04:27:24.164Z,77.97
2018-04-16T04:28:34.169Z,78.16
2018-04-16T04:29:44.179Z,77.4
2018-04-16T04:30:53.657Z,77.22
2018-04-16T04:32:03.394Z,77.22
2018-04-16T04:33:13.394Z,77.5
2018-04-16T04:34:23.398Z,77.22
2018-04-16T04:35:33.404Z,77.22
2018-04-16T04:36:43.404Z,78.16
2018-04-16T04:37:52.924Z,78.45
2018-04-16T04:39:02.931Z,78.64
2018-04-16T04:40:12.936Z,79.15
2018-04-16T04:41:22.668Z,78.67
2018-04-16T04:42:32.398Z,78.2
2018-04-16T04:43:42.403Z,78.02
2018-04-16T04:44:52.136Z,78.02
2018-04-16T04:46:01.874Z,78.11
2018-04-16T04:47:11.611Z,78.77
2018-04-16T04:48:21.619Z,78.3
2018-04-16T04:49:31.619Z,78.49
2018-04-16T04:50:41.368Z,77.45
2018-04-16T04:51:51.112Z,76.97
2018-04-16T04:53:01.203Z,77.64
2018-04-16T04:54:11.102Z,78.2
2018-04-16T04:55:20.578Z,78.87
2018-04-16T04:56:30.588Z,78.67
2018-04-16T04:57:40.618Z,78.77
2018-04-16T04:58:50.366Z,78.58
2018-04-16T05:00:00.375Z,78.67
2018-04-16T05:01:10.134Z,78.87
2018-04-16T05:02:19.862Z,78.67
2018-04-16T05:03:29.073Z,78.77
2018-04-16T05:04:39.076Z,78.67
2018-04-16T05:05:49.081Z,78.87
2018-04-16T05:06:58.823Z,78.49
2018-04-16T05:08:08.558Z,78.39
2018-04-16T05:09:18.042Z,77.73
2018-04-16T05:10:27.778Z,77.25
2018-04-16T05:11:37.509Z,77.45
2018-04-16T05:12:47.360Z,77.45
2018-04-16T05:13:57.368Z,78.02
2018-04-16T05:15:07.112Z,78.3
2018-04-16T05:16:16.854Z,78.87
2018-04-16T05:17:26.585Z,78.67
2018-04-16T05:18:35.791Z,79.34
2018-04-16T05:19:45.793Z,79.82
2018-04-16T05:20:55.811Z,79.91
2018-04-16T05:22:05.288Z,80
2018-04-16T05:23:15.301Z,80.48
2018-04-16T05:24:25.043Z,80.29
2018-04-16T05:25:35.052Z,80.95
2018-04-16T05:26:45.054Z,80.19
2018-04-16T05:27:54.789Z,80.38
2018-04-16T05:29:04.791Z,80.29
2018-04-16T05:30:14.794Z,80.1
2018-04-16T05:31:24.529Z,79.15
2018-04-16T05:32:34.680Z,79.15
2018-04-16T05:33:44.475Z,78.49
2018-04-16T05:34:54.220Z,78.77
2018-04-16T05:36:03.685Z,78.3
2018-04-16T05:37:13.687Z,78.3
2018-04-16T05:38:23.425Z,78.11
2018-04-16T05:39:33.429Z,77.73
2018-04-16T05:40:43.161Z,78.49
2018-04-16T05:41:53.165Z,78.77
2018-04-16T05:43:03.171Z,78.96
2018-04-16T05:44:12.373Z,78.58
2018-04-16T05:45:21.575Z,78.3
2018-04-16T05:46:31.037Z,78.77
2018-04-16T05:47:40.774Z,78.49
2018-04-16T05:48:50.800Z,78.72
2018-04-16T05:50:00.535Z,78.05
2018-04-16T05:51:10.006Z,77.77
2018-04-16T05:52:19.749Z,77.86
2018-04-16T05:53:29.761Z,77.29
2018-04-16T05:54:39.232Z,77.2
2018-04-16T05:55:48.970Z,76.44
2018-04-16T05:56:58.714Z,77.01
2018-04-16T05:58:08.447Z,76.82
2018-04-16T05:59:18.217Z,76.97
2018-04-16T06:00:28.303Z,76.12
2018-04-16T06:01:37.516Z,76.15
2018-04-16T06:02:47.518Z,75.64
2018-04-16T06:03:57.526Z,76.12
2018-04-16T06:05:06.995Z,75.55
2018-04-16T06:06:17.018Z,75.26
2018-04-16T06:07:27.027Z,75.55
2018-04-16T06:08:37.045Z,75.17
2018-04-16T06:09:47.046Z,74.41
2018-04-16T06:10:57.045Z,73.75
2018-04-16T06:12:06.246Z,73.56
2018-04-16T06:13:15.725Z,73.84
2018-04-16T06:14:25.780Z,73.56
2018-04-16T06:15:35.255Z,73.31
2018-04-16T06:16:45.048Z,73.12
2018-04-16T06:17:54.273Z,73.5
2018-04-16T06:19:04.068Z,73.79
2018-04-16T06:20:14.033Z,73.41
2018-04-16T06:21:24.033Z,73.5
2018-04-16T06:22:33.769Z,73.97
2018-04-16T06:23:43.518Z,73.69
2018-04-16T06:24:53.530Z,73.41
2018-04-16T06:26:03.271Z,72.74
2018-04-16T06:27:13.059Z,73.69
2018-04-16T06:28:23.302Z,74.35
2018-04-16T06:29:33.302Z,74.73
2018-04-16T06:30:43.037Z,73.5
2018-04-16T06:31:52.778Z,73.03
2018-04-16T06:33:02.516Z,72.88
2018-04-16T06:34:12.085Z,73.63
2018-04-16T06:35:21.826Z,74.01
2018-04-16T06:36:31.297Z,73.82
2018-04-16T06:37:41.042Z,73.35
2018-04-16T06:38:51.049Z,72.97
2018-04-16T06:40:00.778Z,71.83
2018-04-16T06:41:10.311Z,71.55
2018-04-16T06:42:20.053Z,72.11
2018-04-16T06:43:29.995Z,71.92
2018-04-16T06:44:39.476Z,72.78
2018-04-16T06:45:49.213Z,73.16
2018-04-16T06:46:59.218Z,73.16
2018-04-16T06:48:08.959Z,72.88
2018-04-16T06:49:18.710Z,72.3
2018-04-16T06:50:28.445Z,72.3
2018-04-16T06:51:37.916Z,72.02
2018-04-16T06:52:47.649Z,71.58
2018-04-16T06:53:57.402Z,70.92
2018-04-16T06:55:06.880Z,70.73
2018-04-16T06:56:16.081Z,70.54
2018-04-16T06:57:26.086Z,70.35
2018-04-16T06:58:36.090Z,70.35
2018-04-16T06:59:45.851Z,70.63
2018-04-16T07:00:55.356Z,71.11
2018-04-16T07:02:04.603Z,70.44
2018-04-16T07:03:14.196Z,70.35
2018-04-16T07:04:23.969Z,69.59
2018-04-16T07:05:33.465Z,69.4
2018-04-16T07:06:43.516Z,69.68
2018-04-16T07:07:53.543Z,69.36
2018-04-16T07:09:03.632Z,70.31
2018-04-16T07:10:13.628Z,70.4
2018-04-16T07:11:23.385Z,70.31
2018-04-16T07:12:33.130Z,70.69
2018-04-16T07:13:42.334Z,70.69
2018-04-16T07:14:52.344Z,70.59
2018-04-16T07:16:02.248Z,70.78
2018-04-16T07:17:12.076Z,70.12
2018-04-16T07:18:21.823Z,70.21
2018-04-16T07:19:31.577Z,70.5
2018-04-16T07:20:41.512Z,70.5
2018-04-16T07:21:51.526Z,70.5
2018-04-16T07:23:00.998Z,71.17
2018-04-16T07:24:10.817Z,71.07
2018-04-16T07:25:20.678Z,71.45
2018-04-16T07:26:30.144Z,70.98
2018-04-16T07:27:40.169Z,70.5
2018-04-16T07:28:50.207Z,70.31
2018-04-16T07:29:59.682Z,70.5
2018-04-16T07:31:08.884Z,71.26
2018-04-16T07:32:18.993Z,71.45
2018-04-16T07:33:28.463Z,70.31
2018-04-16T07:34:38.339Z,70.5
2018-04-16T07:35:48.075Z,70.03
2018-04-16T07:36:58.082Z,70.12
2018-04-16T07:38:07.874Z,71.17
2018-04-16T07:39:17.075Z,70.88
2018-04-16T07:40:26.813Z,70.59
2018-04-16T07:41:36.822Z,70.31
2018-04-16T07:42:46.831Z,70.63
2018-04-16T07:43:56.041Z,70.63
2018-04-16T07:45:05.775Z,70.15
2018-04-16T07:46:15.790Z,69.68
2018-04-16T07:47:25.805Z,70.25
2018-04-16T07:48:35.818Z,69.43
2018-04-16T07:49:45.821Z,69.15
2018-04-16T07:50:55.562Z,68.19
2018-04-16T07:52:05.038Z,67.91
2018-04-16T07:53:15.042Z,68.44
2018-04-16T07:54:25.075Z,69.02
2018-04-16T07:55:35.088Z,69.3
2018-04-16T07:56:45.091Z,69.4
2018-04-16T07:57:54.838Z,69.3
2018-04-16T07:59:04.836Z,69.49
2018-04-16T08:00:14.680Z,69.78
2018-04-16T08:01:24.738Z,70.15
2018-04-16T08:02:34.028Z,69.49
2018-04-16T08:03:44.033Z,69.49
2018-04-16T08:04:53.772Z,69.3
2018-04-16T08:06:03.507Z,68.16
2018-04-16T08:07:13.576Z,67.59
2018-04-16T08:08:23.580Z,66.96
2018-04-16T08:09:33.065Z,66.58
2018-04-16T08:10:43.078Z,65.73
2018-04-16T08:11:52.567Z,65.44
2018-04-16T08:13:02.319Z,64.78
2018-04-16T08:14:12.060Z,64.49
2018-04-16T08:15:22.068Z,63.92
2018-04-16T08:16:31.271Z,64.02
2018-04-16T08:17:41.279Z,63.64
2018-04-16T08:18:51.116Z,63.45
2018-04-16T08:20:00.319Z,63.92
2018-04-16T08:21:09.526Z,63.45
2018-04-16T08:22:19.339Z,63.17
2018-04-16T08:23:29.090Z,62.62
2018-04-16T08:24:38.571Z,62.62
2018-04-16T08:25:48.319Z,62.34
2018-04-16T08:26:58.340Z,62.43
2018-04-16T08:28:08.191Z,62.62
2018-04-16T08:29:17.936Z,62.72
2018-04-16T08:30:27.695Z,61.68
2018-04-16T08:31:37.708Z,61.23
2018-04-16T08:32:47.465Z,61.32
2018-04-16T08:33:56.405Z,61.23
2018-04-16T08:35:06.144Z,61.32
2018-04-16T08:36:15.899Z,60.47
2018-04-16T08:37:25.914Z,60.41
2018-04-16T08:38:35.916Z,60.41
2018-04-16T08:39:45.921Z,60.41
2018-04-16T08:40:55.664Z,60.31
2018-04-16T08:42:05.672Z,59.45
2018-04-16T08:43:15.416Z,59.36
2018-04-16T08:44:25.167Z,59.48
2018-04-16T08:45:34.907Z,59.1
2018-04-16T08:46:44.911Z,59.1
2018-04-16T08:47:54.926Z,59.29
2018-04-16T08:49:04.667Z,58.81
2018-04-16T08:50:14.141Z,58.91
2018-04-16T08:51:23.890Z,58.81
2018-04-16T08:52:34.027Z,58.44
2018-04-16T08:53:44.055Z,58.65
2018-04-16T08:54:54.069Z,58.37
2018-04-16T08:56:03.552Z,58.28
2018-04-16T08:57:13.041Z,57.51
2018-04-16T08:58:22.784Z,56.94
2018-04-16T08:59:32.803Z,57.51
2018-04-16T09:00:43.021Z,56.46
2018-04-16T09:01:52.502Z,57.23
2018-04-16T09:03:02.505Z,56.27
2018-04-16T09:04:11.980Z,56.18
2018-04-16T09:05:22.022Z,55.9
2018-04-16T09:06:31.768Z,56.18
2018-04-16T09:07:41.509Z,57.13
2018-04-16T09:08:51.022Z,57.04
2018-04-16T09:10:01.046Z,57.32
2018-04-16T09:11:10.530Z,55.54
2018-04-16T09:12:20.546Z,54.94
2018-04-16T09:13:30.019Z,55.04
2018-04-16T09:14:40.031Z,55.42
2018-04-16T09:15:49.778Z,55.7
2018-04-16T09:16:59.006Z,55.92
2018-04-16T09:18:08.216Z,55.54
2018-04-16T09:19:17.976Z,55.61
2018-04-16T09:20:27.723Z,55.04
2018-04-16T09:21:37.196Z,54.94
2018-04-16T09:22:46.936Z,56.09
2018-04-16T09:23:56.945Z,55.9
2018-04-16T09:25:06.423Z,55.9
2018-04-16T09:26:16.204Z,55.42
2018-04-16T09:27:26.216Z,55.42
2018-04-16T09:28:36.071Z,55.26
2018-04-16T09:29:45.851Z,55.16
2018-04-16T09:30:55.329Z,55.26
2018-04-16T09:32:05.339Z,54.02
2018-04-16T09:33:15.078Z,53.92
2018-04-16T09:34:25.084Z,54.21
2018-04-16T09:35:34.561Z,54.18
2018-04-16T09:36:44.311Z,54.85
2018-04-16T09:37:54.060Z,55.22
2018-04-16T09:39:03.605Z,55.9
2018-04-16T09:40:13.448Z,55.35
2018-04-16T09:41:22.923Z,56.27
2018-04-16T09:42:32.400Z,55.35
2018-04-16T09:43:42.410Z,55.16
2018-04-16T09:44:52.150Z,54.78
2018-04-16T09:46:01.639Z,54.97
2018-04-16T09:47:11.655Z,54.78
2018-04-16T09:48:21.444Z,54.71
2018-04-16T09:49:31.193Z,54.52
2018-04-16T09:50:41.208Z,54.43
2018-04-16T09:51:50.687Z,54.04
2018-04-16T09:53:00.694Z,54.24
2018-04-16T09:54:10.164Z,53.73
2018-04-16T09:55:20.215Z,54.02
2018-04-16T09:56:29.961Z,54.3
2018-04-16T09:57:39.710Z,54.97
2018-04-16T09:58:49.729Z,54.78
2018-04-16T09:59:59.471Z,54.78
2018-04-16T10:01:09.223Z,55.13
2018-04-16T10:02:18.965Z,55.42
2018-04-16T10:03:28.707Z,55.22
2018-04-16T10:04:38.452Z,56.09
2018-04-16T10:05:48.460Z,56.46
2018-04-16T10:06:58.203Z,57.01
2018-04-16T10:08:07.689Z,57.48
2018-04-16T10:09:17.431Z,57.32
2018-04-16T10:10:26.909Z,57.2
2018-04-16T10:11:36.659Z,57.29
2018-04-16T10:12:45.867Z,58.47
2018-04-16T10:13:55.614Z,57.8
2018-04-16T10:15:05.358Z,58.08
2018-04-16T10:16:15.108Z,57.7
2018-04-16T10:17:24.853Z,57.26
2018-04-16T10:18:34.594Z,56.02
2018-04-16T10:19:44.063Z,55.92
2018-04-16T10:20:54.147Z,55.61
2018-04-16T10:22:03.623Z,56.18
2018-04-16T10:23:13.376Z,56.37
2018-04-16T10:24:22.851Z,57.04
2018-04-16T10:25:32.334Z,57.04
2018-04-16T10:26:42.345Z,57.29
2018-04-16T10:27:52.358Z,57.51
2018-04-16T10:29:02.376Z,57.87
2018-04-16T10:30:11.857Z,59.1
2018-04-16T10:31:21.604Z,58.81
2018-04-16T10:32:31.838Z,59.48
2018-04-16T10:33:41.869Z,60.05
2018-04-16T10:34:51.669Z,60.24
2018-04-16T10:36:01.680Z,60.02
2018-04-16T10:37:11.422Z,60.41
2018-04-16T10:38:21.442Z,60.02
2018-04-16T10:39:30.653Z,60.41
2018-04-16T10:40:40.401Z,59.93
2018-04-16T10:41:50.196Z,58.91
2018-04-16T10:42:59.952Z,58.81
2018-04-16T10:44:09.424Z,59.1
2018-04-16T10:45:19.164Z,59.2
2018-04-16T10:46:28.926Z,58.15
2018-04-16T10:47:38.429Z,58.25
2018-04-16T10:48:48.205Z,59.48
2018-04-16T10:49:57.692Z,58.72
2018-04-16T10:51:07.703Z,58.72
2018-04-16T10:52:17.728Z,58.81
2018-04-16T10:53:27.201Z,58.91
2018-04-16T10:54:36.953Z,59.01
2018-04-16T10:55:46.970Z,58.06
2018-04-16T10:56:56.984Z,58.06
2018-04-16T10:58:06.735Z,58.25
2018-04-16T10:59:16.765Z,58.44
2018-04-16T11:00:26.784Z,57.89
2018-04-16T11:01:36.530Z,57.42
2018-04-16T11:02:46.276Z,56.09
2018-04-16T11:03:56.281Z,56.27
2018-04-16T11:05:05.783Z,55.61
2018-04-16T11:06:15.384Z,55.16
2018-04-16T11:07:25.021Z,55.07
2018-04-16T11:08:34.770Z,54.88
2018-04-16T11:09:44.535Z,54.68
2018-04-16T11:10:54.548Z,54.39
2018-04-16T11:12:04.379Z,54.11
2018-04-16T11:13:13.928Z,54.3
2018-04-16T11:14:23.404Z,53.56
2018-04-16T11:15:33.245Z,53.47
2018-04-16T11:16:42.728Z,53.59
2018-04-16T11:17:52.246Z,51.97
2018-04-16T11:19:02.011Z,51.59
2018-04-16T11:20:11.539Z,50.57
2018-04-16T11:21:21.391Z,50.4
2018-04-16T11:22:31.411Z,49.47
2018-04-16T11:23:41.187Z,48.99
2018-04-16T11:24:50.941Z,48.25
2018-04-16T11:26:00.704Z,48.07
2018-04-16T11:27:10.453Z,47.68
2018-04-16T11:28:20.210Z,47.89
2018-04-16T11:29:30.251Z,47.13
2018-04-16T11:30:39.734Z,46.84
2018-04-16T11:31:49.756Z,46.27
2018-04-16T11:32:59.288Z,46.84
2018-04-16T11:34:09.317Z,47.13
2018-04-16T11:35:19.068Z,47.49
2018-04-16T11:36:28.826Z,48.16
2018-04-16T11:37:38.315Z,47.87
2018-04-16T11:38:48.064Z,47.68
2018-04-16T11:39:58.091Z,47.78
2018-04-16T11:41:07.840Z,48.07
2018-04-16T11:42:17.858Z,48.25
2018-04-16T11:43:27.611Z,48.07
2018-04-16T11:44:37.093Z,48.8
2018-04-16T11:45:47.114Z,49.76
2018-04-16T11:46:57.164Z,49.21
2018-04-16T11:48:06.916Z,48.28
2018-04-16T11:49:16.981Z,47.63
2018-04-16T11:50:26.730Z,46.96
2018-04-16T11:51:36.751Z,46.8
2018-04-16T11:52:46.760Z,46.61
2018-04-16T11:53:56.516Z,46.34
2018-04-16T11:55:06.264Z,46.34
2018-04-16T11:56:16.276Z,46.75
2018-04-16T11:57:26.068Z,46.36
2018-04-16T11:58:35.287Z,45.59
2018-04-16T11:59:45.040Z,45.72
2018-04-16T12:00:54.791Z,45.23
2018-04-16T12:02:04.959Z,44.4
2018-04-16T12:03:15.061Z,44.13
2018-04-16T12:04:25.293Z,43.74
2018-04-16T12:05:35.757Z,43.36
2018-04-16T12:06:45.505Z,43.67
2018-04-16T12:07:55.259Z,43.19
2018-04-16T12:09:05.283Z,43.1
2018-04-16T12:10:15.306Z,42.52
2018-04-16T12:11:25.141Z,42.52
2018-04-16T12:12:35.170Z,42.52
2018-04-16T12:13:45.230Z,42.81
2018-04-16T12:14:54.711Z,43
2018-04-16T12:16:03.661Z,43.27
2018-04-16T12:17:13.455Z,43.36
2018-04-16T12:18:22.940Z,43.84
2018-04-16T12:19:32.151Z,44.32
2018-04-16T12:20:41.758Z,45.45
2018-04-16T12:21:51.523Z,45.26
2018-04-16T12:23:01.002Z,45.23
2018-04-16T12:24:10.580Z,45.43
2018-04-16T12:25:19.801Z,45.43
2018-04-16T12:26:29.547Z,45.59
2018-04-16T12:27:39.573Z,45.79
2018-04-16T12:28:49.125Z,46.17
2018-04-16T12:29:59.141Z,46.36
2018-04-16T12:31:08.623Z,46.25
2018-04-16T12:32:17.844Z,46.62
2018-04-16T12:33:27.599Z,46.44
2018-04-16T12:34:37.076Z,47.11
2018-04-16T12:35:46.551Z,47.2
2018-04-16T12:36:56.089Z,47.39
2018-04-16T12:38:05.850Z,47.2
2018-04-16T12:39:15.057Z,47.58
2018-04-16T12:40:24.810Z,47.94
2018-04-16T12:41:34.819Z,47.66
2018-04-16T12:42:44.917Z,48.23
2018-04-16T12:43:54.666Z,48.23
2018-04-16T12:45:04.685Z,48.23
2018-04-16T12:46:14.161Z,48.23
2018-04-16T12:47:24.177Z,48.97
2018-04-16T12:48:33.669Z,49.35
2018-04-16T12:49:43.157Z,50.31
2018-04-16T12:50:52.652Z,50.19
2018-04-16T12:52:02.663Z,50.57
2018-04-16T12:53:12.677Z,50.57
2018-04-16T12:54:22.696Z,49.55
2018-04-16T12:55:32.752Z,50.12
2018-04-16T12:56:42.761Z,50.19
2018-04-16T12:57:52.506Z,49.64
2018-04-16T12:59:01.722Z,50.5
2018-04-16T13:00:11.470Z,50.31
2018-04-16T13:01:21.545Z,50.41
2018-04-16T13:02:31.778Z,50.5
2018-04-16T13:03:41.793Z,50.6
2018-04-16T13:04:51.543Z,50.41
2018-04-16T13:06:01.566Z,50.48
2018-04-16T13:07:11.048Z,50.31
2018-04-16T13:08:20.524Z,50.41
2018-04-16T13:09:30.272Z,50.5
2018-04-16T13:10:39.749Z,50.41
2018-04-16T13:11:49.500Z,50.38
2018-04-16T13:12:58.974Z,51.05
2018-04-16T13:14:08.457Z,50.76
2018-04-16T13:15:18.469Z,51.05
2018-04-16T13:16:28.480Z,51.34
2018-04-16T13:17:37.950Z,51.34
2018-04-16T13:18:47.975Z,51.05
2018-04-16T13:19:57.988Z,51.91
2018-04-16T13:21:07.229Z,51.91
2018-04-16T13:22:16.704Z,51.53
2018-04-16T13:23:26.713Z,51.91
2018-04-16T13:24:36.456Z,52.1
2018-04-16T13:25:46.206Z,52.67
2018-04-16T13:26:56.219Z,52.65
2018-04-16T13:28:05.690Z,53.03
2018-04-16T13:29:15.697Z,53.32
2018-04-16T13:30:25.445Z,53.61
2018-04-16T13:31:35.452Z,54.75
2018-04-16T13:32:45.195Z,54.82
2018-04-16T13:33:54.933Z,54.25
2018-04-16T13:35:05.053Z,54.15
2018-04-16T13:36:15.067Z,54.66
2018-04-16T13:37:25.133Z,55.11
2018-04-16T13:38:35.167Z,54.63
2018-04-16T13:39:45.186Z,54.15
2018-04-16T13:40:54.930Z,54.27
2018-04-16T13:42:04.405Z,54.08
2018-04-16T13:43:14.410Z,54.08
2018-04-16T13:44:23.879Z,54.25
2018-04-16T13:45:33.889Z,54.34
2018-04-16T13:46:43.898Z,54.91
2018-04-16T13:47:53.657Z,54.63
2018-04-16T13:49:03.399Z,54.53
2018-04-16T13:50:12.875Z,55.4
2018-04-16T13:51:22.885Z,55.77
2018-04-16T13:52:32.893Z,55.3
2018-04-16T13:53:42.894Z,56.25
2018-04-16T13:54:52.641Z,56.23
2018-04-16T13:56:02.386Z,56.16
2018-04-16T13:57:11.866Z,56.89
2018-04-16T13:58:21.073Z,57.37
2018-04-16T13:59:30.828Z,57.18
2018-04-16T14:00:40.633Z,56.51
2018-04-16T14:01:49.846Z,56.04
2018-04-16T14:02:59.855Z,56.8
2018-04-16T14:04:09.327Z,57.28
2018-04-16T14:05:19.084Z,58.04
2018-04-16T14:06:29.285Z,58.14
2018-04-16T14:07:39.024Z,58.23
2018-04-16T14:08:48.762Z,57.56
2018-04-16T14:09:58.284Z,57.46
2018-04-16T14:11:08.298Z,56.51
2018-04-16T14:12:18.033Z,56.23
2018-04-16T14:13:27.795Z,57.09
2018-04-16T14:14:37.547Z,57.65
2018-04-16T14:15:47.305Z,57.46
2018-04-16T14:16:57.320Z,57.56
2018-04-16T14:18:07.067Z,57.65
2018-04-16T14:19:16.808Z,57.09
2018-04-16T14:20:26.823Z,58.11
2018-04-16T14:21:36.839Z,58.39
2018-04-16T14:22:46.587Z,58.29
2018-04-16T14:23:56.599Z,58.11
2018-04-16T14:25:06.352Z,58.39
2018-04-16T14:26:16.376Z,57.92
2018-04-16T14:27:26.120Z,57.92
2018-04-16T14:28:36.130Z,58.58
2018-04-16T14:29:46.182Z,57.82
2018-04-16T14:30:55.921Z,58.39
2018-04-16T14:32:05.928Z,58.26
2018-04-16T14:33:16.037Z,58.2
2018-04-16T14:34:25.540Z,58.39
2018-04-16T14:35:35.293Z,58.29
2018-04-16T14:36:45.345Z,58.94
2018-04-16T14:37:55.359Z,58.97
2018-04-16T14:39:05.365Z,60.08
2018-04-16T14:40:14.582Z,60.21
2018-04-16T14:41:24.331Z,59.34
2018-04-16T14:42:34.337Z,59.44
2018-04-16T14:43:44.350Z,59.34
2018-04-16T14:44:54.087Z,59.16
2018-04-16T14:46:03.848Z,59.16
2018-04-16T14:47:13.591Z,58.58
2018-04-16T14:48:23.597Z,58.2
2018-04-16T14:49:33.136Z,58.39
2018-04-16T14:50:43.148Z,58.29
2018-04-16T14:51:52.891Z,57.63
2018-04-16T14:53:02.900Z,57.75
2018-04-16T14:54:12.909Z,57.46
2018-04-16T14:55:22.919Z,57.24
2018-04-16T14:56:33.034Z,57.94
2018-04-16T14:57:42.800Z,58.2
2018-04-16T14:58:52.809Z,57.72
2018-04-16T15:00:02.549Z,58.2
2018-04-16T15:01:12.318Z,58.68
2018-04-16T15:02:22.098Z,57.72
2018-04-16T15:03:31.933Z,58.39
2018-04-16T15:04:41.789Z,58.77